Unalaska Airport
PADU : rendu visible

Aérodrome :











RETROUVEZ-NOUS SUR...

 
LOGIN :

S'inscrire | Disclaimer

   EN    FR    IT 

 









Légende :    VFR   VFR Marginal   IFR   IFR Intensif   IFR Très Intensif
Visi : 
Plafond : 
>= 8 km
>= 3000ft
5 à 8 km
1000 à 3000 ft
1500m à 5 km
500 à 1000 ft
800 à 1500m
200 à 500 ft
< 800m
< 200 ft
Symboles :   Orages  Brouillard  Fortes neiges  Fortes précipitations  Vent > 20 kt






- Altitude de l'aérodrome : 22 ft
- Code IATA : DUT


PADU - Unalaska

DERNIER METAR :
  • 010756Z AUTO 02010G36KT 240V160 10SM FEW032 SCT042 OVC065 M01/M07 A2904 RMK AO2 PK WND 34056/0703 UPE0659B41E49SNB0659E41 SLP840 P0000 T10061072 400221011 FZRANO

METARs EXPIRÉS :
  • 010710Z AUTO 04015G56KT 350V090 3SM -SN SQ SCT030 BKN041 OVC055 M01/M06 A2903 RMK AO2 PK WND 34056/0703 UPE0659SNB0659 P0000 FZRANO
  • 010656Z AUTO 35013G40KT 9SM UP FEW029 BKN050 OVC060 M01/M06 A2903 RMK AO2 PK WND 35045/0607 UPB11SNE11B23E35 SLP836 P0000 T10061056 FZRANO
  • 010603Z AUTO 35023G34KT 4SM -SN FEW020 BKN040 OVC055 00/M07 A2901 RMK AO2 PK WND 36034/0602 P0000 FZRANO
  • 010556Z AUTO 33013G30KT 180V130 2 1/2SM -SN FEW020 BKN033 OVC049 M01/M06 A2900 RMK AO2 PK WND 36042/0522 VIS 1V5 UPB19E46SNE19B46 SLP825 P0000 60002 T10061056 10011 21011 51024 FZRANO

TAF PADU
Valide du 01 à 06h jusqu'au 02 à 06h UTC


010602Z 0106/0206 34025G40KT 6SM -SHSN SCT015 BKN035
TEMPO 0106/0109 2SM -SN BR BKN025
FM011200 33015G30KT P6SM -SHSN SCT020 BKN035
FM020000 32012G24KT 6SM -SHSN BKN025
FIR PAZA / Amérique du Nord



MET'MAP, la Météo Aéronautique d'un coup d'oeil ! - Copyright ORBIFLY Décembre 2007 - Disclaimer

ORBIFLY MET'MAP TEAM :

Programmation & Développement : Alexandra Zaïnal
Sur une idée originale de : Baudouin d'Aumeries
Assistance à la programmation : Marc-Olivier Méhu
Soutien technique & logistique : Manuel Goepfert

Contact : metmap@orbifly.com




SOURCES & CREDITS :

   NOAA       Earth
Advisory